createdAt,value
2018-09-29T00:00:09.918Z,2.37
2018-09-29T00:02:38.432Z,1.97
2018-09-29T00:05:06.984Z,2.40
2018-09-29T00:07:35.419Z,1.60
2018-09-29T00:10:03.867Z,2.00
2018-09-29T00:12:32.377Z,3.43
2018-09-29T00:15:00.900Z,2.70
2018-09-29T00:17:29.417Z,1.83
2018-09-29T00:19:57.840Z,2.20
2018-09-29T00:22:26.296Z,1.90
2018-09-29T00:24:54.820Z,1.70
2018-09-29T00:27:23.363Z,1.97
2018-09-29T00:29:51.849Z,2.00
2018-09-29T00:32:20.337Z,2.37
2018-09-29T00:34:48.838Z,2.40
2018-09-29T00:37:17.245Z,2.67
2018-09-29T00:39:45.651Z,2.27
2018-09-29T00:42:14.095Z,1.70
2018-09-29T00:44:42.460Z,2.03
2018-09-29T00:47:10.876Z,2.17
2018-09-29T00:49:39.298Z,2.27
2018-09-29T00:52:07.714Z,2.03
2018-09-29T00:54:36.136Z,2.20
2018-09-29T00:57:04.551Z,1.90
2018-09-29T00:59:32.983Z,2.30
2018-09-29T01:02:01.452Z,1.87
2018-09-29T01:04:29.872Z,1.73
2018-09-29T01:06:58.470Z,2.90
2018-09-29T01:09:26.888Z,2.13
2018-09-29T01:11:55.330Z,2.60
2018-09-29T01:14:23.858Z,2.00
2018-09-29T01:16:52.233Z,2.47
2018-09-29T01:19:20.697Z,2.50
2018-09-29T01:21:49.083Z,1.97
2018-09-29T01:24:17.583Z,2.00
2018-09-29T01:26:45.901Z,2.33
2018-09-29T01:29:14.341Z,2.20
2018-09-29T01:31:42.821Z,1.83
2018-09-29T01:34:11.384Z,1.83
2018-09-29T01:36:40.099Z,2.40
2018-09-29T01:39:09.871Z,2.27
2018-09-29T01:41:38.471Z,2.33
2018-09-29T01:44:07.011Z,2.17
2018-09-29T01:46:35.599Z,2.53
2018-09-29T01:49:04.220Z,1.97
2018-09-29T01:51:32.936Z,1.90
2018-09-29T01:54:01.314Z,2.23
2018-09-29T01:56:29.996Z,1.60
2018-09-29T01:58:58.669Z,2.47
2018-09-29T02:01:27.234Z,2.10
2018-09-29T02:03:55.597Z,1.97
2018-09-29T02:06:23.969Z,1.90
2018-09-29T02:08:52.321Z,2.60
2018-09-29T02:11:20.728Z,1.80
2018-09-29T02:13:49.106Z,2.10
2018-09-29T02:16:17.469Z,1.67
2018-09-29T02:18:45.867Z,1.80
2018-09-29T02:21:14.274Z,2.07
2018-09-29T02:23:42.722Z,2.37
2018-09-29T02:26:11.193Z,2.53
2018-09-29T02:28:39.786Z,1.63
2018-09-29T02:31:08.406Z,2.70
2018-09-29T02:33:36.818Z,2.10
2018-09-29T02:36:05.311Z,1.90
2018-09-29T02:38:33.824Z,2.00
2018-09-29T02:41:02.380Z,2.30
2018-09-29T02:43:30.894Z,2.13
2018-09-29T02:45:59.378Z,2.13
2018-09-29T02:48:27.965Z,2.23
2018-09-29T02:50:56.314Z,2.00
2018-09-29T02:53:24.836Z,2.27
2018-09-29T02:55:53.243Z,1.80
2018-09-29T02:58:21.715Z,2.70
2018-09-29T03:00:50.118Z,1.97
2018-09-29T03:03:18.621Z,2.07
2018-09-29T03:05:47.099Z,1.60
2018-09-29T03:08:15.496Z,2.23
2018-09-29T03:10:43.849Z,1.77
2018-09-29T03:13:12.334Z,1.90
2018-09-29T03:15:40.730Z,2.33
2018-09-29T03:18:09.116Z,1.60
2018-09-29T03:20:37.582Z,1.63
2018-09-29T03:23:12.637Z,1.93
2018-09-29T03:25:41.974Z,1.70
2018-09-29T03:28:10.641Z,2.23
2018-09-29T03:30:39.045Z,1.70
2018-09-29T03:33:07.460Z,2.07
2018-09-29T03:35:35.889Z,1.77
2018-09-29T03:38:04.562Z,1.90
2018-09-29T03:40:32.974Z,1.80
2018-09-29T03:43:01.598Z,2.10
2018-09-29T03:45:30.070Z,1.60
2018-09-29T03:47:58.679Z,1.97
2018-09-29T03:50:27.368Z,2.00
2018-09-29T03:52:55.822Z,2.50
2018-09-29T03:55:24.422Z,2.00
2018-09-29T03:57:52.847Z,1.80
2018-09-29T04:00:21.332Z,1.70
2018-09-29T04:02:49.767Z,2.13
2018-09-29T04:05:18.166Z,1.87
2018-09-29T04:07:46.586Z,2.17
2018-09-29T04:10:15.077Z,1.73
2018-09-29T04:12:43.465Z,2.10
2018-09-29T04:15:11.907Z,1.80
2018-09-29T04:17:40.434Z,1.73
2018-09-29T04:20:08.885Z,1.77
2018-09-29T04:22:37.366Z,2.57
2018-09-29T04:25:05.969Z,2.03
2018-09-29T04:27:34.484Z,1.73
2018-09-29T04:30:03.051Z,2.40
2018-09-29T04:32:31.487Z,1.93
2018-09-29T04:34:59.949Z,1.90
2018-09-29T04:37:28.415Z,2.50
2018-09-29T04:39:56.895Z,2.07
2018-09-29T04:42:25.275Z,2.23
2018-09-29T04:44:53.682Z,2.00
2018-09-29T04:47:22.028Z,2.70
2018-09-29T04:49:50.439Z,2.43
2018-09-29T04:52:18.773Z,2.50
2018-09-29T04:54:47.315Z,1.80
2018-09-29T04:57:15.763Z,2.20
2018-09-29T04:59:44.139Z,2.13
2018-09-29T05:02:12.537Z,3.00
2018-09-29T05:04:40.956Z,1.80
2018-09-29T05:07:09.458Z,1.93
2018-09-29T05:09:44.255Z,1.73
2018-09-29T05:12:12.763Z,2.10
2018-09-29T05:14:41.369Z,2.57
2018-09-29T05:17:09.868Z,1.87
2018-09-29T05:19:38.248Z,1.93
2018-09-29T05:22:07.055Z,2.27
2018-09-29T05:24:35.585Z,2.23
2018-09-29T05:27:04.002Z,2.17
2018-09-29T05:29:32.378Z,2.83
2018-09-29T05:32:00.934Z,2.20
2018-09-29T05:34:29.319Z,2.33
2018-09-29T05:36:57.738Z,2.13
2018-09-29T05:39:26.298Z,2.23
2018-09-29T05:41:54.773Z,2.50
2018-09-29T05:44:23.251Z,2.20
2018-09-29T05:46:51.726Z,2.03
2018-09-29T05:49:20.155Z,2.50
2018-09-29T05:51:48.514Z,2.37
2018-09-29T05:54:16.891Z,2.50
2018-09-29T05:56:45.435Z,2.73
2018-09-29T05:59:13.945Z,2.17
2018-09-29T06:01:42.275Z,2.60
2018-09-29T06:04:10.693Z,2.90
2018-09-29T06:06:39.158Z,2.30
2018-09-29T06:09:08.729Z,2.00
2018-09-29T06:11:37.106Z,1.90
2018-09-29T06:14:05.662Z,2.47
2018-09-29T06:16:34.025Z,2.20
2018-09-29T06:19:02.441Z,2.60
2018-09-29T06:21:30.861Z,2.10
2018-09-29T06:23:59.251Z,2.27
2018-09-29T06:26:27.862Z,2.13
2018-09-29T06:28:56.295Z,2.23
2018-09-29T06:31:24.784Z,2.53
2018-09-29T06:33:53.146Z,1.80
2018-09-29T06:36:21.601Z,2.30
2018-09-29T06:38:49.998Z,2.20
2018-09-29T06:41:18.620Z,2.70
2018-09-29T06:43:47.130Z,2.40
2018-09-29T06:46:15.559Z,2.53
2018-09-29T06:48:43.998Z,2.37
2018-09-29T06:51:12.395Z,2.30
2018-09-29T06:53:40.766Z,1.87
2018-09-29T06:56:09.282Z,2.00
2018-09-29T06:58:37.689Z,1.80
2018-09-29T07:01:06.393Z,2.30
2018-09-29T07:03:34.807Z,2.93
2018-09-29T07:06:03.344Z,2.50
2018-09-29T07:08:31.820Z,1.90
2018-09-29T07:11:00.202Z,1.87
2018-09-29T07:13:28.651Z,1.80
2018-09-29T07:15:57.008Z,1.93
2018-09-29T07:18:25.470Z,1.80
2018-09-29T07:20:53.950Z,2.30
2018-09-29T07:23:22.468Z,2.03
2018-09-29T07:25:51.084Z,1.70
2018-09-29T07:28:19.422Z,1.93
2018-09-29T07:30:47.874Z,2.60
2018-09-29T07:33:16.429Z,1.87
2018-09-29T07:35:44.792Z,1.97
2018-09-29T07:38:13.338Z,2.10
2018-09-29T07:40:41.756Z,2.63
2018-09-29T07:43:10.236Z,1.50
2018-09-29T07:45:38.618Z,1.73
2018-09-29T07:48:07.003Z,2.00
2018-09-29T07:50:35.418Z,1.20
2018-09-29T07:53:04.061Z,1.50
2018-09-29T07:55:32.602Z,1.70
2018-09-29T07:58:00.996Z,2.27
2018-09-29T08:00:29.404Z,1.70
2018-09-29T08:02:57.833Z,1.47
2018-09-29T08:05:26.435Z,1.87
2018-09-29T08:07:54.906Z,1.70
2018-09-29T08:10:23.310Z,1.50
2018-09-29T08:12:51.808Z,1.87
2018-09-29T08:15:20.349Z,1.80
2018-09-29T08:17:48.793Z,1.83
2018-09-29T08:20:17.281Z,2.53
2018-09-29T08:22:45.828Z,1.90
2018-09-29T08:25:14.362Z,2.07
2018-09-29T08:27:42.855Z,1.80
2018-09-29T08:30:11.324Z,1.40
2018-09-29T08:32:39.764Z,2.07
2018-09-29T08:35:08.315Z,1.73
2018-09-29T08:37:36.885Z,1.33
2018-09-29T08:40:06.307Z,1.73
2018-09-29T08:42:34.879Z,1.50
2018-09-29T08:45:03.362Z,1.70
2018-09-29T08:47:31.840Z,1.73
2018-09-29T08:50:00.351Z,1.60
2018-09-29T08:52:28.718Z,1.70
2018-09-29T08:54:57.278Z,1.47
2018-09-29T08:57:25.736Z,1.30
2018-09-29T08:59:54.139Z,1.50
2018-09-29T09:02:22.652Z,1.70
2018-09-29T09:04:51.082Z,1.60
2018-09-29T09:07:19.495Z,1.67
2018-09-29T09:09:48.001Z,2.00
2018-09-29T09:12:16.558Z,1.80
2018-09-29T09:14:45.091Z,1.53
2018-09-29T09:17:13.544Z,1.67
2018-09-29T09:19:41.998Z,1.27
2018-09-29T09:22:10.567Z,1.70
2018-09-29T09:24:38.979Z,1.83
2018-09-29T09:27:07.533Z,1.60
2018-09-29T09:29:35.978Z,1.47
2018-09-29T09:32:04.549Z,1.40
2018-09-29T09:34:33.018Z,1.47
2018-09-29T09:37:01.626Z,1.30
2018-09-29T09:39:30.275Z,1.70
2018-09-29T09:41:58.902Z,1.53
2018-09-29T09:44:27.738Z,1.83
2018-09-29T09:46:56.266Z,1.93
2018-09-29T09:49:24.923Z,2.03
2018-09-29T09:51:53.380Z,1.90
2018-09-29T09:54:21.861Z,1.83
2018-09-29T09:56:50.250Z,1.10
2018-09-29T09:59:18.686Z,1.57
2018-09-29T10:01:52.751Z,1.73
2018-09-29T10:04:21.210Z,1.80
2018-09-29T10:06:50.114Z,1.50
2018-09-29T10:09:18.952Z,1.93
2018-09-29T10:11:47.421Z,1.70
2018-09-29T10:14:16.023Z,1.70
2018-09-29T10:16:44.417Z,2.13
2018-09-29T10:19:12.994Z,1.77
2018-09-29T10:21:41.393Z,2.40
2018-09-29T10:24:09.800Z,1.90
2018-09-29T10:26:38.376Z,1.93
2018-09-29T10:29:06.770Z,2.73
2018-09-29T10:31:35.235Z,2.53
2018-09-29T10:34:03.787Z,2.20
2018-09-29T10:36:32.251Z,2.60
2018-09-29T10:39:00.796Z,2.10
2018-09-29T10:41:29.293Z,2.33
2018-09-29T10:43:57.751Z,2.37
2018-09-29T10:46:26.210Z,2.87
2018-09-29T10:48:54.896Z,2.20
2018-09-29T10:51:23.319Z,2.87
2018-09-29T10:53:51.815Z,3.00
2018-09-29T10:56:20.338Z,2.43
2018-09-29T10:58:48.801Z,2.50
2018-09-29T11:01:17.253Z,2.50
2018-09-29T11:03:45.693Z,3.03
2018-09-29T11:06:14.218Z,2.20
2018-09-29T11:08:42.722Z,2.03
2018-09-29T11:11:11.167Z,2.73
2018-09-29T11:13:39.650Z,2.83
2018-09-29T11:16:08.669Z,2.73
2018-09-29T11:18:37.193Z,2.53
2018-09-29T11:21:05.927Z,2.73
2018-09-29T11:23:34.392Z,2.70
2018-09-29T11:26:02.930Z,3.40
2018-09-29T11:28:31.394Z,2.23
2018-09-29T11:30:59.821Z,2.63
2018-09-29T11:33:28.235Z,2.43
2018-09-29T11:35:56.673Z,2.50
2018-09-29T11:38:25.101Z,3.33
2018-09-29T11:40:53.646Z,2.47
2018-09-29T11:43:22.265Z,2.73
2018-09-29T11:45:50.686Z,2.50
2018-09-29T11:48:19.165Z,3.03
2018-09-29T11:50:47.621Z,3.00
2018-09-29T11:53:16.157Z,2.30
2018-09-29T11:55:44.568Z,2.60
2018-09-29T11:58:13.091Z,2.40
2018-09-29T12:00:41.619Z,2.67
2018-09-29T12:03:10.253Z,2.93
2018-09-29T12:05:38.707Z,2.20
2018-09-29T12:08:07.282Z,2.40
2018-09-29T12:10:35.757Z,2.50
2018-09-29T12:13:04.165Z,2.67
2018-09-29T12:15:32.621Z,2.70
2018-09-29T12:18:01.188Z,2.60
2018-09-29T12:20:29.811Z,3.13
2018-09-29T12:22:58.275Z,2.60
2018-09-29T12:25:26.670Z,2.50
2018-09-29T12:27:55.075Z,1.97
2018-09-29T12:30:23.658Z,2.27
2018-09-29T12:32:52.245Z,2.83
2018-09-29T12:35:20.692Z,2.40
2018-09-29T12:37:49.261Z,2.10
2018-09-29T12:40:17.746Z,2.50
2018-09-29T12:42:46.462Z,2.47
2018-09-29T12:45:14.877Z,2.20
2018-09-29T12:47:43.360Z,2.20
2018-09-29T12:50:11.879Z,2.30
2018-09-29T12:52:40.263Z,3.10
2018-09-29T12:55:08.768Z,1.87
2018-09-29T12:57:37.273Z,2.77
2018-09-29T13:00:06.355Z,2.30
2018-09-29T13:02:34.905Z,2.27
2018-09-29T13:05:03.429Z,2.70
2018-09-29T13:07:31.809Z,2.33
2018-09-29T13:10:00.264Z,2.20
2018-09-29T13:12:28.699Z,2.73
2018-09-29T13:14:57.183Z,2.50
2018-09-29T13:17:25.707Z,2.03
2018-09-29T13:19:54.232Z,2.93
2018-09-29T13:22:22.798Z,2.60
2018-09-29T13:24:51.201Z,2.03
2018-09-29T13:27:19.763Z,2.10
2018-09-29T13:29:48.211Z,3.43
2018-09-29T13:32:16.582Z,2.27
2018-09-29T13:34:45.070Z,2.10
2018-09-29T13:37:13.551Z,2.90
2018-09-29T13:39:41.925Z,2.43
2018-09-29T13:42:10.393Z,2.33
2018-09-29T13:44:38.801Z,2.43
2018-09-29T13:47:07.420Z,2.47
2018-09-29T13:49:35.873Z,2.00
2018-09-29T13:52:04.495Z,2.40
2018-09-29T13:54:32.889Z,2.90
2018-09-29T13:57:01.278Z,1.90
2018-09-29T13:59:30.776Z,2.00
2018-09-29T14:01:59.138Z,2.20
2018-09-29T14:04:27.605Z,2.53
2018-09-29T14:06:56.092Z,1.97
2018-09-29T14:09:24.496Z,2.23
2018-09-29T14:11:52.932Z,2.10
2018-09-29T14:14:21.932Z,2.40
2018-09-29T14:16:50.421Z,1.67
2018-09-29T14:19:18.894Z,2.07
2018-09-29T14:21:47.305Z,2.30
2018-09-29T14:24:15.852Z,2.00
2018-09-29T14:26:44.281Z,1.80
2018-09-29T14:29:12.646Z,2.00
2018-09-29T14:31:41.141Z,1.87
2018-09-29T14:34:09.680Z,2.13
2018-09-29T14:36:38.153Z,2.23
2018-09-29T14:39:08.618Z,1.80
2018-09-29T14:41:38.274Z,1.90
2018-09-29T14:44:06.995Z,2.23
2018-09-29T14:46:35.426Z,2.00
2018-09-29T14:49:03.925Z,2.10
2018-09-29T14:51:32.513Z,1.70
2018-09-29T14:54:00.990Z,2.07
2018-09-29T14:56:29.383Z,1.97
2018-09-29T14:58:57.914Z,2.20
2018-09-29T15:01:26.314Z,2.33
2018-09-29T15:03:54.785Z,2.27
2018-09-29T15:06:23.161Z,1.80
2018-09-29T15:08:51.588Z,2.20
2018-09-29T15:11:20.019Z,2.13
2018-09-29T15:13:48.550Z,2.70
2018-09-29T15:16:17.168Z,1.67
2018-09-29T15:18:45.936Z,2.00
2018-09-29T15:21:14.337Z,2.40
2018-09-29T15:23:42.851Z,2.10
2018-09-29T15:26:11.553Z,2.07
2018-09-29T15:28:40.021Z,2.30
2018-09-29T15:31:08.412Z,2.00
2018-09-29T15:33:36.942Z,2.10
2018-09-29T15:36:05.527Z,1.70
2018-09-29T15:38:33.954Z,1.97
2018-09-29T15:41:02.454Z,1.60
2018-09-29T15:43:31.020Z,2.27
2018-09-29T15:45:59.420Z,1.70
2018-09-29T15:48:27.768Z,1.80
2018-09-29T15:50:57.027Z,1.83
2018-09-29T15:53:25.510Z,1.90
2018-09-29T15:55:54.067Z,2.03
2018-09-29T15:58:27.231Z,2.30
2018-09-29T16:00:55.693Z,1.80
2018-09-29T16:03:27.390Z,1.87
2018-09-29T16:05:57.582Z,1.90
2018-09-29T16:08:26.684Z,2.10
2018-09-29T16:10:55.571Z,2.37
2018-09-29T16:13:24.178Z,2.30
2018-09-29T16:15:53.224Z,2.10
2018-09-29T16:18:21.696Z,1.80
2018-09-29T16:20:50.068Z,1.93
2018-09-29T16:23:18.564Z,1.97
2018-09-29T16:25:46.950Z,1.90
2018-09-29T16:28:15.419Z,2.47
2018-09-29T16:30:43.890Z,1.87
2018-09-29T16:33:12.416Z,2.13
2018-09-29T16:35:40.867Z,2.13
2018-09-29T16:38:09.289Z,2.30
2018-09-29T16:40:39.619Z,2.20
2018-09-29T16:43:08.068Z,1.73
2018-09-29T16:45:36.591Z,1.90
2018-09-29T16:48:05.313Z,2.00
2018-09-29T16:50:33.846Z,2.23
2018-09-29T16:53:02.954Z,2.90
2018-09-29T16:55:31.409Z,1.70
2018-09-29T16:57:59.941Z,2.37
2018-09-29T17:00:28.325Z,2.23
2018-09-29T17:02:56.819Z,2.00
2018-09-29T17:05:25.328Z,2.43
2018-09-29T17:07:53.780Z,2.20
2018-09-29T17:10:22.417Z,2.40
2018-09-29T17:12:50.950Z,2.73
2018-09-29T17:15:19.559Z,2.70
2018-09-29T17:17:49.158Z,3.13
2018-09-29T17:20:17.658Z,2.63
2018-09-29T17:22:46.085Z,2.37
2018-09-29T17:25:14.674Z,2.53
2018-09-29T17:27:43.075Z,1.87
2018-09-29T17:30:11.675Z,2.13
2018-09-29T17:32:40.047Z,2.37
2018-09-29T17:35:08.582Z,2.77
2018-09-29T17:37:37.001Z,2.50
2018-09-29T17:40:05.512Z,2.77
2018-09-29T17:42:34.190Z,2.70
2018-09-29T17:45:02.651Z,3.20
2018-09-29T17:47:31.108Z,3.77
2018-09-29T17:49:59.662Z,4.80
2018-09-29T17:52:28.202Z,3.03
2018-09-29T17:54:56.724Z,4.50
2018-09-29T17:57:25.289Z,4.97
2018-09-29T17:59:53.712Z,3.83
2018-09-29T18:02:22.094Z,3.80
2018-09-29T18:04:50.618Z,3.30
2018-09-29T18:07:19.087Z,2.57
2018-09-29T18:09:47.450Z,2.70
2018-09-29T18:12:16.063Z,4.17
2018-09-29T18:14:44.452Z,13.27
2018-09-29T18:17:12.920Z,13.87
2018-09-29T18:19:41.331Z,13.47
2018-09-29T18:22:09.836Z,4.87
2018-09-29T18:24:38.365Z,5.53
2018-09-29T18:27:06.789Z,4.77
2018-09-29T18:29:35.311Z,4.23
2018-09-29T18:32:03.775Z,5.17
2018-09-29T18:34:32.235Z,5.00
2018-09-29T18:37:00.748Z,11.30
2018-09-29T18:39:29.114Z,7.63
2018-09-29T18:41:57.671Z,7.60
2018-09-29T18:44:26.092Z,4.70
2018-09-29T18:46:54.514Z,5.63
2018-09-29T18:49:23.026Z,4.67
2018-09-29T18:51:51.553Z,4.40
2018-09-29T18:54:19.832Z,4.30
2018-09-29T18:56:48.396Z,5.77
2018-09-29T18:59:16.865Z,4.97
2018-09-29T19:01:45.312Z,5.03
2018-09-29T19:04:13.820Z,5.53
2018-09-29T19:06:42.276Z,6.37
2018-09-29T19:09:12.318Z,5.87
2018-09-29T19:11:41.511Z,6.40
2018-09-29T19:14:10.285Z,5.87
2018-09-29T19:16:38.770Z,5.37
2018-09-29T19:19:07.722Z,7.13
2018-09-29T19:21:36.232Z,6.03
2018-09-29T19:24:04.871Z,5.00
2018-09-29T19:26:33.372Z,5.23
2018-09-29T19:29:01.874Z,5.97
2018-09-29T19:31:30.357Z,5.70
2018-09-29T19:33:58.940Z,5.40
2018-09-29T19:36:27.540Z,4.93
2018-09-29T19:38:56.138Z,4.73
2018-09-29T19:41:24.559Z,5.00
2018-09-29T19:43:53.210Z,5.20
2018-09-29T19:46:21.814Z,4.70
2018-09-29T19:48:50.688Z,5.20
2018-09-29T19:51:19.257Z,5.00
2018-09-29T19:53:47.694Z,5.50
2018-09-29T19:56:16.349Z,5.93
2018-09-29T19:58:44.961Z,5.67
2018-09-29T20:01:13.490Z,5.77
2018-09-29T20:03:41.957Z,5.97
2018-09-29T20:06:10.488Z,5.63
2018-09-29T20:08:39.093Z,5.17
2018-09-29T20:11:07.691Z,5.83
2018-09-29T20:13:36.293Z,5.80
2018-09-29T20:16:04.859Z,7.10
2018-09-29T20:18:33.309Z,5.83
2018-09-29T20:21:01.850Z,6.40
2018-09-29T20:23:30.258Z,5.27
2018-09-29T20:25:58.766Z,5.40
2018-09-29T20:28:27.237Z,6.17
2018-09-29T20:30:55.719Z,6.03
2018-09-29T20:33:24.239Z,6.23
2018-09-29T20:35:52.687Z,5.73
2018-09-29T20:38:21.200Z,5.83
2018-09-29T20:40:49.647Z,5.97
2018-09-29T20:43:18.481Z,6.80
2018-09-29T20:45:46.934Z,6.33
2018-09-29T20:48:15.552Z,5.77
2018-09-29T20:50:44.101Z,6.20
2018-09-29T20:53:12.553Z,5.67
2018-09-29T20:55:41.086Z,6.00
2018-09-29T20:58:09.533Z,5.63
2018-09-29T21:00:38.177Z,5.77
2018-09-29T21:03:07.006Z,5.23
2018-09-29T21:05:35.377Z,5.60
2018-09-29T21:08:04.246Z,5.63
2018-09-29T21:10:32.680Z,5.90
2018-09-29T21:13:01.348Z,5.90
2018-09-29T21:15:29.762Z,5.73
2018-09-29T21:17:58.223Z,5.60
2018-09-29T21:20:27.003Z,5.73
2018-09-29T21:22:55.515Z,6.50
2018-09-29T21:25:24.015Z,5.70
2018-09-29T21:27:52.481Z,5.30
2018-09-29T21:30:20.994Z,6.80
2018-09-29T21:32:49.452Z,6.03
2018-09-29T21:35:17.889Z,6.00
2018-09-29T21:37:46.570Z,6.73
2018-09-29T21:40:15.124Z,6.60
2018-09-29T21:42:43.740Z,6.40
2018-09-29T21:45:12.110Z,6.70
2018-09-29T21:47:40.772Z,5.63
2018-09-29T21:50:09.276Z,6.00
2018-09-29T21:52:37.666Z,5.30
2018-09-29T21:55:06.168Z,6.30
2018-09-29T21:57:34.618Z,6.17
2018-09-29T22:00:03.301Z,5.93
2018-09-29T22:02:31.698Z,5.63
2018-09-29T22:05:00.122Z,5.70
2018-09-29T22:07:28.530Z,5.53
2018-09-29T22:09:56.892Z,6.40
2018-09-29T22:12:25.275Z,6.47
2018-09-29T22:14:53.665Z,6.10
2018-09-29T22:17:22.171Z,6.63
2018-09-29T22:19:50.617Z,5.77
2018-09-29T22:22:19.082Z,6.37
2018-09-29T22:24:47.772Z,5.83
2018-09-29T22:27:16.249Z,6.50
2018-09-29T22:29:44.714Z,6.50
2018-09-29T22:32:13.299Z,5.40
2018-09-29T22:34:41.670Z,6.57
2018-09-29T22:37:10.228Z,6.00
2018-09-29T22:39:38.764Z,6.03
2018-09-29T22:42:07.404Z,6.43
2018-09-29T22:44:35.978Z,6.47
2018-09-29T22:47:04.385Z,6.53
2018-09-29T22:49:32.820Z,6.00
2018-09-29T22:52:01.224Z,6.20
2018-09-29T22:54:29.620Z,5.43
2018-09-29T22:56:57.994Z,6.33
2018-09-29T22:59:26.433Z,6.10
2018-09-29T23:01:55.747Z,5.20
2018-09-29T23:04:24.185Z,5.63
2018-09-29T23:06:52.708Z,6.53
2018-09-29T23:09:21.309Z,7.00
2018-09-29T23:11:49.845Z,6.90
2018-09-29T23:14:18.294Z,7.03
2018-09-29T23:16:46.715Z,7.23
2018-09-29T23:19:15.260Z,7.40
2018-09-29T23:21:43.643Z,6.57
2018-09-29T23:24:12.133Z,7.63
2018-09-29T23:26:40.634Z,6.40
2018-09-29T23:29:09.110Z,5.90
2018-09-29T23:31:37.562Z,6.20
2018-09-29T23:34:06.429Z,5.50
2018-09-29T23:36:35.031Z,6.10
2018-09-29T23:39:05.025Z,5.80
2018-09-29T23:41:33.434Z,5.83
2018-09-29T23:44:01.878Z,5.90
2018-09-29T23:46:30.207Z,6.30
2018-09-29T23:48:58.661Z,5.80
2018-09-29T23:51:27.177Z,5.73
2018-09-29T23:53:55.587Z,6.40
2018-09-29T23:56:24.042Z,5.53
2018-09-29T23:58:52.489Z,5.40
